Terminal Aerodrome Forecast
Issued by NWS

Home | Current Version | Previous Version | Text Only | Print | Product List | Glossary Off
Versions: 1 2 3 4 5 6 7 8 9 10 11 12

536
FTUS45 KGGW 111726
TAFSDY
TAF
KSDY 111726Z 1118/1218 03008KT 2SM -SN OVC015
     FM112100 02009KT P6SM VCSH OVC025
     FM120200 02006KT P6SM BKN020
     FM121200 05008KT P6SM FEW008 BKN020 OVC060
      AMD LTD TO CLD VIS AND WIND=

USA.gov is the U.S. government's official web portal to all federal, state and local government web resources and services.